createdAt,value
2019-06-07T00:00:51.769Z,85.33
2019-06-07T00:03:27.410Z,85.51
2019-06-07T00:05:52.493Z,85.74
2019-06-07T00:08:27.843Z,85.88
2019-06-07T00:10:53.168Z,85.69
2019-06-07T00:13:22.988Z,85.05
2019-06-07T00:15:52.426Z,85.42
2019-06-07T00:18:25.950Z,85.10
2019-06-07T00:20:53.265Z,85.57
2019-06-07T00:23:23.151Z,85.37
2019-06-07T00:25:52.614Z,85.48
2019-06-07T00:28:22.073Z,85.51
2019-06-07T00:30:52.746Z,85.79
2019-06-07T00:33:24.543Z,85.90
2019-06-07T00:35:53.691Z,85.30
2019-06-07T00:38:23.164Z,85.27
2019-06-07T00:40:52.717Z,85.63
2019-06-07T00:43:27.825Z,85.94
2019-06-07T00:45:53.478Z,85.59
2019-06-07T00:48:30.929Z,86.13
2019-06-07T00:50:54.248Z,85.91
2019-06-07T00:53:31.659Z,85.71
2019-06-07T00:55:54.825Z,85.57
2019-06-07T00:58:27.520Z,86.13
2019-06-07T01:00:55.790Z,85.45
2019-06-07T01:03:26.026Z,86.41
2019-06-07T01:05:55.664Z,85.91
2019-06-07T01:08:29.898Z,85.99
2019-06-07T01:10:56.830Z,86.08
2019-06-07T01:13:27.102Z,85.88
2019-06-07T01:15:56.750Z,85.96
2019-06-07T01:18:37.316Z,86.40
2019-06-07T01:20:57.788Z,85.80
2019-06-07T01:25:58.635Z,85.79
2019-06-07T01:28:30.170Z,86.30
2019-06-07T01:30:59.828Z,86.05
2019-06-07T01:33:49.860Z,86.40
2019-06-07T01:36:00.455Z,85.63
2019-06-07T01:38:30.240Z,85.49
2019-06-07T01:40:59.811Z,85.55
2019-06-07T01:43:31.079Z,85.42
2019-06-07T01:46:00.407Z,85.64
2019-06-07T01:48:48.493Z,85.46
2019-06-07T01:51:01.054Z,86.05
2019-06-07T01:53:31.600Z,86.08
2019-06-07T01:56:01.417Z,85.77
2019-06-07T01:58:30.918Z,85.30
2019-06-07T02:01:00.474Z,85.80
2019-06-07T02:03:33.077Z,85.81
2019-06-07T02:06:01.570Z,85.33
2019-06-07T02:08:34.425Z,85.74
2019-06-07T02:11:02.668Z,85.74
2019-06-07T02:13:32.119Z,85.71
2019-06-07T02:16:01.647Z,85.81
2019-06-07T02:18:34.665Z,85.56
2019-06-07T02:21:02.298Z,85.41
2019-06-07T02:23:33.723Z,85.57
2019-06-07T02:26:02.960Z,85.45
2019-06-07T02:28:44.651Z,85.77
2019-06-07T02:31:03.791Z,85.49
2019-06-07T02:33:39.153Z,85.64
2019-06-07T02:36:04.577Z,85.26
2019-06-07T02:38:37.387Z,85.56
2019-06-07T02:41:05.496Z,85.64
2019-06-07T02:43:37.225Z,85.81
2019-06-07T02:46:27.676Z,86.01
2019-06-07T02:48:44.078Z,85.91
2019-06-07T02:51:13.925Z,84.85
2019-06-07T02:53:43.376Z,85.53
2019-06-07T02:56:55.657Z,85.61
2019-06-07T02:59:06.956Z,85.07
2019-06-07T03:01:42.301Z,84.90
2019-06-07T03:04:10.690Z,85.53
2019-06-07T03:06:43.993Z,85.11
2019-06-07T03:09:14.049Z,85.09
2019-06-07T03:11:49.090Z,85.00
2019-06-07T03:14:26.509Z,84.49
2019-06-07T03:17:09.939Z,84.73
2019-06-07T03:19:44.173Z,84.71
2019-06-07T03:22:13.917Z,84.81
2019-06-07T03:24:45.699Z,85.09
2019-06-07T03:27:34.789Z,85.06
2019-06-07T03:29:55.867Z,85.58
2019-06-07T03:32:25.664Z,86.02
2019-06-07T03:34:58.438Z,85.61
2019-06-07T03:37:30.693Z,85.93
2019-06-07T03:39:59.981Z,85.77
2019-06-07T03:42:31.593Z,85.86
2019-06-07T03:45:01.403Z,85.51
2019-06-07T03:47:32.370Z,85.74
2019-06-07T03:50:02.629Z,85.68
2019-06-07T03:52:38.200Z,85.72
2019-06-07T03:55:06.682Z,85.52
2019-06-07T03:58:29.524Z,86.12
2019-06-07T04:00:29.690Z,86.13
2019-06-07T04:02:59.533Z,86.02
2019-06-07T04:05:38.848Z,85.61
2019-06-07T04:08:05.083Z,85.09
2019-06-07T04:10:55.745Z,85.36
2019-06-07T04:13:10.353Z,85.85
2019-06-07T04:15:43.304Z,85.62
2019-06-07T04:19:25.842Z,85.40
2019-06-07T04:22:23.388Z,85.00
2019-06-07T04:25:42.270Z,83.71
2019-06-07T04:29:35.689Z,84.85
2019-06-07T04:31:39.878Z,85.37
2019-06-07T04:34:09.798Z,85.20
2019-06-07T04:36:55.195Z,84.16
2019-06-07T04:39:11.196Z,83.97
2019-06-07T04:41:42.211Z,83.61
2019-06-07T04:44:13.084Z,83.90
2019-06-07T04:46:45.953Z,83.38
2019-06-07T04:49:18.101Z,83.68
2019-06-07T04:51:49.287Z,83.91
2019-06-07T04:54:21.977Z,80.79
2019-06-07T04:56:51.503Z,81.37
2019-06-07T05:00:00.764Z,79.44
2019-06-07T05:01:52.651Z,80.89
2019-06-07T05:04:22.355Z,79.00
2019-06-07T05:06:52.000Z,80.58
2019-06-07T05:09:21.559Z,78.67
2019-06-07T05:11:51.067Z,81.35
2019-06-07T05:14:20.560Z,80.17
2019-06-07T05:16:50.213Z,79.03
2019-06-07T05:19:19.731Z,79.82
2019-06-07T05:22:03.645Z,80.84
2019-06-07T05:24:23.538Z,79.27
2019-06-07T05:26:53.188Z,81.50
2019-06-07T05:29:22.833Z,79.71
2019-06-07T05:31:52.822Z,77.89
2019-06-07T05:34:22.357Z,79.15
2019-06-07T05:37:10.601Z,77.68
2019-06-07T05:39:23.474Z,78.92
2019-06-07T05:41:53.181Z,80.30
2019-06-07T05:44:22.817Z,79.72
2019-06-07T05:46:52.335Z,78.54
2019-06-07T05:49:21.936Z,77.90
2019-06-07T05:51:51.471Z,78.34
2019-06-07T05:54:21.121Z,75.04
2019-06-07T05:56:50.685Z,77.62
2019-06-07T05:59:20.278Z,78.46
2019-06-07T06:02:01.927Z,78.47
2019-06-07T06:04:20.996Z,77.30
2019-06-07T06:06:50.493Z,77.58
2019-06-07T06:09:20.422Z,78.18
2019-06-07T06:12:01.794Z,78.18
2019-06-07T06:14:22.599Z,76.89
2019-06-07T06:16:52.205Z,76.81
2019-06-07T06:19:24.874Z,73.61
2019-06-07T06:21:54.798Z,73.61
2019-06-07T06:24:24.248Z,75.10
2019-06-07T06:27:00.187Z,73.69
2019-06-07T06:29:25.338Z,73.87
2019-06-07T06:32:39.481Z,75.59
2019-06-07T06:34:26.490Z,71.95
2019-06-07T06:36:56.016Z,71.95
2019-06-07T06:39:25.638Z,71.49
2019-06-07T06:42:03.302Z,71.49
2019-06-07T06:44:26.526Z,69.50
2019-06-07T06:46:58.146Z,69.21
2019-06-07T06:49:27.415Z,70.74
2019-06-07T06:51:57.015Z,70.54
2019-06-07T06:54:40.326Z,70.73
2019-06-07T06:57:18.553Z,68.04
2019-06-07T06:59:38.554Z,68.82
2019-06-07T07:02:00.827Z,66.37
2019-06-07T07:04:30.890Z,62.46
2019-06-07T07:07:04.790Z,64.49
2019-06-07T07:09:35.002Z,62.69
2019-06-07T07:12:12.022Z,59.46
2019-06-07T07:14:36.284Z,59.12
2019-06-07T07:17:05.911Z,56.39
2019-06-07T07:19:35.785Z,53.81
2019-06-07T07:22:05.394Z,51.92
2019-06-07T07:24:34.837Z,52.90
2019-06-07T07:27:07.093Z,51.15
2019-06-07T07:29:36.691Z,50.97
2019-06-07T07:32:06.433Z,49.64
2019-06-07T07:34:37.380Z,48.10
2019-06-07T07:37:07.340Z,47.13
2019-06-07T07:39:36.922Z,45.06
2019-06-07T07:42:20.025Z,44.64
2019-06-07T07:44:38.024Z,43.33
2019-06-07T07:47:07.590Z,41.41
2019-06-07T07:49:37.131Z,42.24
2019-06-07T07:52:06.604Z,40.60
2019-06-07T07:54:36.197Z,38.94
2019-06-07T07:57:08.599Z,37.83
2019-06-07T07:59:44.173Z,35.87
2019-06-07T08:02:09.809Z,37.16
2019-06-07T08:05:13.794Z,35.32
2019-06-07T08:07:10.576Z,36.93
2019-06-07T08:09:40.187Z,35.12
2019-06-07T08:12:09.738Z,35.31
2019-06-07T08:14:39.301Z,34.68
2019-06-07T08:17:08.880Z,34.15
2019-06-07T08:19:38.331Z,36.35
2019-06-07T08:22:07.920Z,33.52
2019-06-07T08:24:37.479Z,33.17
2019-06-07T08:27:25.415Z,30.74
2019-06-07T08:29:44.881Z,30.39
2019-06-07T08:32:09.735Z,31.90
2019-06-07T08:34:39.264Z,31.29
2019-06-07T08:37:08.842Z,32.90
2019-06-07T08:39:38.289Z,29.91
2019-06-07T08:42:17.645Z,31.05
2019-06-07T08:44:39.096Z,30.84
2019-06-07T08:47:20.090Z,29.68
2019-06-07T08:49:39.907Z,29.37
2019-06-07T08:52:12.150Z,29.37
2019-06-07T08:54:40.804Z,27.45
2019-06-07T08:57:20.787Z,26.94
2019-06-07T08:59:41.321Z,28.20
2019-06-07T09:02:23.294Z,26.15
2019-06-07T09:04:43.214Z,26.83
2019-06-07T09:07:19.513Z,26.08
2019-06-07T09:09:44.115Z,27.15
2019-06-07T09:12:13.647Z,26.49
2019-06-07T09:14:59.848Z,28.12
2019-06-07T09:17:14.367Z,28.21
2019-06-07T09:19:43.965Z,28.53
2019-06-07T09:22:13.617Z,28.04
2019-06-07T09:24:43.073Z,26.92
2019-06-07T09:27:12.843Z,26.93
2019-06-07T09:29:43.830Z,26.22
2019-06-07T09:32:18.078Z,25.64
2019-06-07T09:34:44.509Z,24.16
2019-06-07T09:38:02.682Z,26.81
2019-06-07T09:39:45.136Z,26.42
2019-06-07T09:42:14.643Z,27.33
2019-06-07T09:44:44.344Z,28.79
2019-06-07T09:47:30.994Z,29.64
2019-06-07T09:49:45.255Z,26.63
2019-06-07T09:52:14.791Z,28.18
2019-06-07T09:57:17.521Z,27.59
2019-06-07T09:59:46.898Z,27.58
2019-06-07T10:02:16.736Z,27.95
2019-06-07T10:04:46.169Z,26.55
2019-06-07T10:07:30.724Z,26.54
2019-06-07T10:12:18.155Z,22.77
2019-06-07T10:14:47.579Z,21.59
2019-06-07T10:17:17.827Z,21.60
2019-06-07T10:19:47.239Z,22.61
2019-06-07T10:22:16.655Z,21.78
2019-06-07T10:24:46.048Z,21.26
2019-06-07T10:27:15.426Z,20.44
2019-06-07T10:29:44.943Z,21.07
2019-06-07T10:32:14.423Z,19.37
2019-06-07T10:34:43.864Z,18.79
2019-06-07T10:37:15.595Z,20.37
2019-06-07T10:39:48.713Z,19.27
2019-06-07T10:42:15.745Z,19.09
2019-06-07T10:44:45.214Z,18.63
2019-06-07T10:47:14.595Z,18.36
2019-06-07T10:49:44.026Z,17.97
2019-06-07T10:52:13.569Z,18.73
2019-06-07T10:54:42.999Z,18.00
2019-06-07T10:57:16.099Z,19.38
2019-06-07T10:59:43.975Z,18.30
2019-06-07T11:02:14.067Z,16.87
2019-06-07T11:04:43.572Z,18.12
2019-06-07T11:07:14.326Z,17.23
2019-06-07T11:09:43.992Z,17.04
2019-06-07T11:12:15.143Z,16.52
2019-06-07T11:14:44.622Z,16.98
2019-06-07T11:17:15.704Z,14.98
2019-06-07T11:19:51.288Z,16.46
2019-06-07T11:22:20.771Z,15.14
2019-06-07T11:24:50.967Z,15.58
2019-06-07T11:27:20.325Z,16.29
2019-06-07T11:29:49.829Z,17.25
2019-06-07T11:32:19.191Z,15.80
2019-06-07T11:34:48.663Z,16.30
2019-06-07T11:37:19.166Z,15.45
2019-06-07T11:39:48.737Z,16.06
2019-06-07T11:42:20.050Z,15.33
2019-06-07T11:44:56.927Z,14.50
2019-06-07T11:47:20.537Z,13.18
2019-06-07T11:49:50.158Z,13.80
2019-06-07T11:52:19.528Z,12.49
2019-06-07T11:54:49.078Z,13.55
2019-06-07T11:57:18.563Z,16.37
2019-06-07T11:59:48.026Z,14.85
2019-06-07T12:02:17.733Z,14.79
2019-06-07T12:04:47.542Z,14.96
2019-06-07T12:07:17.709Z,15.21
2019-06-07T12:09:56.493Z,14.94
2019-06-07T12:12:20.497Z,14.19
2019-06-07T12:14:50.465Z,12.83
2019-06-07T12:17:19.895Z,15.10
2019-06-07T12:19:49.391Z,14.23
2019-06-07T12:22:20.045Z,14.41
2019-06-07T12:24:49.480Z,14.42
2019-06-07T12:27:18.934Z,13.55
2019-06-07T12:29:48.577Z,12.49
2019-06-07T12:32:19.510Z,11.99
2019-06-07T12:34:49.008Z,12.27
2019-06-07T12:37:21.086Z,13.22
2019-06-07T12:39:49.599Z,13.26
2019-06-07T12:42:20.540Z,15.18
2019-06-07T12:44:50.097Z,12.26
2019-06-07T12:47:20.993Z,14.50
2019-06-07T12:49:50.788Z,14.75
2019-06-07T12:52:22.835Z,15.40
2019-06-07T12:54:51.551Z,14.15
2019-06-07T12:57:22.126Z,14.77
2019-06-07T12:59:51.412Z,15.51
2019-06-07T13:02:22.115Z,15.45
2019-06-07T13:04:51.949Z,14.34
2019-06-07T13:07:22.556Z,15.72
2019-06-07T13:09:52.440Z,15.32
2019-06-07T13:12:21.828Z,14.48
2019-06-07T13:14:51.205Z,13.80
2019-06-07T13:17:20.593Z,13.34
2019-06-07T13:19:54.167Z,13.05
2019-06-07T13:22:24.405Z,14.02
2019-06-07T13:24:53.954Z,13.41
2019-06-07T13:27:24.535Z,14.17
2019-06-07T13:29:54.002Z,14.63
2019-06-07T13:32:24.555Z,15.36
2019-06-07T13:34:53.973Z,14.40
2019-06-07T13:37:23.495Z,12.78
2019-06-07T13:39:52.928Z,13.23
2019-06-07T13:42:22.865Z,13.42
2019-06-07T13:44:54.822Z,12.79
2019-06-07T13:47:25.508Z,12.70
2019-06-07T13:49:55.476Z,13.01
2019-06-07T13:52:25.110Z,15.56
2019-06-07T13:54:54.655Z,13.11
2019-06-07T13:57:24.428Z,15.27
2019-06-07T13:59:53.778Z,14.83
2019-06-07T14:02:23.998Z,13.92
2019-06-07T14:04:54.246Z,13.59
2019-06-07T14:07:24.866Z,14.31
2019-06-07T14:09:54.895Z,12.05
2019-06-07T14:12:26.095Z,12.77
2019-06-07T14:14:55.485Z,11.50
2019-06-07T14:17:25.308Z,12.10
2019-06-07T14:19:55.055Z,13.01
2019-06-07T14:22:24.818Z,13.67
2019-06-07T14:24:54.348Z,13.66
2019-06-07T14:27:23.755Z,13.42
2019-06-07T14:29:53.475Z,13.69
2019-06-07T14:32:22.829Z,12.82
2019-06-07T14:34:52.580Z,13.27
2019-06-07T14:37:22.815Z,13.59
2019-06-07T14:39:52.403Z,12.30
2019-06-07T14:42:23.342Z,14.69
2019-06-07T14:44:52.830Z,14.09
2019-06-07T14:47:23.813Z,15.69
2019-06-07T14:49:53.344Z,17.10
2019-06-07T14:52:24.421Z,19.56
2019-06-07T14:54:53.969Z,16.00
2019-06-07T14:57:23.268Z,14.80
2019-06-07T14:59:52.604Z,15.14
2019-06-07T15:02:22.057Z,14.51
2019-06-07T15:04:51.605Z,15.81
2019-06-07T15:07:21.032Z,13.59
2019-06-07T15:09:50.356Z,14.34
2019-06-07T15:12:25.192Z,17.70
2019-06-07T15:14:50.672Z,18.07
2019-06-07T15:17:20.094Z,17.36
2019-06-07T15:19:49.357Z,17.16
2019-06-07T15:22:18.575Z,17.25
2019-06-07T15:24:47.996Z,16.13
2019-06-07T15:27:17.675Z,15.74
2019-06-07T15:29:47.086Z,15.82
2019-06-07T15:32:16.360Z,15.60
2019-06-07T15:34:45.626Z,14.81
2019-06-07T15:37:14.877Z,13.68
2019-06-07T15:39:44.279Z,14.25
2019-06-07T15:42:13.758Z,14.07
2019-06-07T15:44:43.026Z,15.22
2019-06-07T15:47:12.325Z,14.74
2019-06-07T15:49:41.592Z,18.00
2019-06-07T15:52:11.162Z,19.15
2019-06-07T15:54:40.758Z,20.95
2019-06-07T15:57:10.204Z,21.23
2019-06-07T15:59:39.657Z,22.52
2019-06-07T16:02:09.055Z,23.54
2019-06-07T16:04:38.303Z,23.37
2019-06-07T16:07:07.602Z,24.61
2019-06-07T16:09:36.880Z,23.11
2019-06-07T16:12:06.344Z,23.48
2019-06-07T16:14:36.940Z,24.33
2019-06-07T16:17:06.598Z,25.65
2019-06-07T16:19:49.059Z,24.59
2019-06-07T16:22:19.696Z,26.32
2019-06-07T16:24:49.682Z,25.47
2019-06-07T16:27:20.396Z,27.09
2019-06-07T16:29:50.109Z,29.24
2019-06-07T16:32:21.766Z,29.96
2019-06-07T16:34:51.335Z,30.94
2019-06-07T16:37:23.247Z,32.23
2019-06-07T16:39:52.833Z,33.98
2019-06-07T16:42:22.392Z,35.91
2019-06-07T16:44:51.965Z,35.94
2019-06-07T16:47:21.540Z,36.77
2019-06-07T16:49:51.068Z,36.35
2019-06-07T16:52:20.735Z,36.27
2019-06-07T16:54:50.296Z,36.14
2019-06-07T16:57:19.922Z,36.03
2019-06-07T16:59:50.845Z,36.33
2019-06-07T17:02:21.458Z,36.13
2019-06-07T17:04:50.939Z,35.17
2019-06-07T17:07:20.442Z,32.33
2019-06-07T17:09:49.983Z,31.84
2019-06-07T17:12:20.672Z,30.66
2019-06-07T17:14:51.430Z,30.79
2019-06-07T17:17:20.836Z,31.24
2019-06-07T17:19:50.269Z,32.30
2019-06-07T17:22:21.193Z,32.83
2019-06-07T17:24:50.713Z,33.74
2019-06-07T17:27:20.404Z,34.33
2019-06-07T17:29:50.211Z,34.97
2019-06-07T17:32:20.069Z,35.66
2019-06-07T17:34:50.339Z,36.29
2019-06-07T17:37:19.929Z,37.22
2019-06-07T17:39:49.404Z,38.35
2019-06-07T17:42:19.096Z,39.86
2019-06-07T17:44:49.255Z,40.24
2019-06-07T17:47:18.813Z,39.45
2019-06-07T17:49:49.951Z,40.57
2019-06-07T17:52:20.015Z,41.44
2019-06-07T17:54:50.068Z,42.45
2019-06-07T17:57:19.903Z,43.74
2019-06-07T17:59:50.624Z,44.53
2019-06-07T18:02:20.121Z,44.90
2019-06-07T18:04:51.338Z,45.26
2019-06-07T18:07:22.507Z,45.94
2019-06-07T18:09:53.715Z,46.27
2019-06-07T18:12:24.930Z,47.17
2019-06-07T18:14:58.119Z,47.15
2019-06-07T18:17:34.705Z,47.34
2019-06-07T18:19:58.844Z,47.20
2019-06-07T18:22:28.332Z,47.58
2019-06-07T18:25:15.870Z,47.13
2019-06-07T18:27:46.559Z,48.24
2019-06-07T18:30:16.420Z,47.88
2019-06-07T18:32:46.906Z,47.08
2019-06-07T18:35:16.447Z,47.20
2019-06-07T18:37:46.972Z,46.79
2019-06-07T18:40:16.980Z,47.20
2019-06-07T18:42:47.121Z,48.30
2019-06-07T18:45:16.794Z,46.24
2019-06-07T18:47:47.827Z,46.32
2019-06-07T18:50:17.471Z,46.45
2019-06-07T18:52:48.554Z,46.34
2019-06-07T18:55:18.667Z,46.32
2019-06-07T18:57:48.240Z,46.96
2019-06-07T19:00:18.355Z,46.87
2019-06-07T19:02:47.931Z,47.43
2019-06-07T19:05:17.561Z,47.55
2019-06-07T19:07:48.379Z,47.87
2019-06-07T19:10:19.551Z,47.05
2019-06-07T19:12:49.209Z,47.01
2019-06-07T19:15:19.480Z,46.14
2019-06-07T19:17:49.758Z,46.73
2019-06-07T19:20:20.272Z,46.85
2019-06-07T19:22:50.163Z,46.76
2019-06-07T19:25:20.178Z,47.07
2019-06-07T19:27:50.651Z,47.14
2019-06-07T19:30:21.485Z,47.09
2019-06-07T19:32:51.380Z,47.55
2019-06-07T19:35:21.266Z,47.51
2019-06-07T19:37:51.736Z,48.20
2019-06-07T19:40:22.517Z,48.64
2019-06-07T19:42:52.213Z,48.21
2019-06-07T19:45:30.315Z,48.47
2019-06-07T19:47:54.389Z,48.54
2019-06-07T19:50:24.211Z,48.24
2019-06-07T19:52:54.921Z,48.46
2019-06-07T19:55:24.569Z,48.52
2019-06-07T19:57:55.520Z,48.18
2019-06-07T20:00:25.246Z,48.63
2019-06-07T20:02:55.846Z,48.89
2019-06-07T20:05:25.451Z,49.39
2019-06-07T20:07:56.356Z,49.45
2019-06-07T20:10:28.180Z,49.59
2019-06-07T20:12:58.720Z,50.70
2019-06-07T20:15:31.505Z,50.31
2019-06-07T20:18:01.334Z,50.77
2019-06-07T20:20:30.983Z,50.49
2019-06-07T20:23:00.942Z,50.98
2019-06-07T20:25:33.592Z,51.21
2019-06-07T20:28:03.437Z,51.27
2019-06-07T20:30:33.013Z,51.29
2019-06-07T20:33:03.979Z,51.58
2019-06-07T20:35:33.547Z,51.47
2019-06-07T20:38:03.985Z,51.49
2019-06-07T20:40:34.275Z,52.31
2019-06-07T20:43:03.900Z,52.64
2019-06-07T20:45:34.350Z,52.41
2019-06-07T20:48:04.267Z,52.46
2019-06-07T20:50:33.878Z,53.61
2019-06-07T20:53:05.048Z,54.66
2019-06-07T20:56:02.591Z,55.80
2019-06-07T20:58:31.860Z,58.12
2019-06-07T21:01:01.194Z,58.79
2019-06-07T21:03:30.647Z,59.50
2019-06-07T21:06:01.425Z,59.49
2019-06-07T21:08:31.022Z,59.66
2019-06-07T21:11:01.549Z,62.92
2019-06-07T21:13:51.396Z,66.22
2019-06-07T21:16:20.737Z,69.13
2019-06-07T21:18:50.111Z,71.38
2019-06-07T21:21:19.553Z,75.09
2019-06-07T21:23:49.005Z,76.19
2019-06-07T21:26:18.550Z,78.25
2019-06-07T21:28:47.972Z,78.68
2019-06-07T21:31:17.501Z,78.66
2019-06-07T21:33:47.007Z,79.59
2019-06-07T21:36:16.544Z,79.73
2019-06-07T21:38:46.055Z,80.78
2019-06-07T21:41:15.526Z,80.78
2019-06-07T21:43:44.998Z,79.26
2019-06-07T21:46:20.180Z,79.56
2019-06-07T21:48:45.905Z,80.72
2019-06-07T21:51:15.552Z,79.46
2019-06-07T21:53:45.140Z,78.67
2019-06-07T21:56:14.946Z,78.67
2019-06-07T21:58:44.555Z,78.83
2019-06-07T22:01:16.873Z,78.42
2019-06-07T22:03:46.586Z,79.47
2019-06-07T22:06:16.377Z,77.73
2019-06-07T22:08:45.852Z,77.18
2019-06-07T22:11:15.830Z,77.18
2019-06-07T22:13:45.344Z,76.89
2019-06-07T22:16:26.570Z,77.92
2019-06-07T22:18:45.981Z,77.92
2019-06-07T22:21:15.401Z,77.26
2019-06-07T22:23:44.956Z,77.26
2019-06-07T22:26:15.578Z,77.43
2019-06-07T22:28:45.164Z,77.40
2019-06-07T22:31:15.037Z,77.06
2019-06-07T22:33:44.678Z,77.54
2019-06-07T22:36:15.916Z,75.93
2019-06-07T22:38:45.921Z,74.34
2019-06-07T22:41:15.926Z,74.40
2019-06-07T22:43:45.569Z,71.72
2019-06-07T22:46:15.140Z,72.90
2019-06-07T22:48:44.857Z,72.90
2019-06-07T22:51:14.739Z,69.20
2019-06-07T22:53:45.751Z,68.58
2019-06-07T22:56:24.921Z,68.58
2019-06-07T22:58:54.619Z,67.70
2019-06-07T23:01:24.473Z,65.86
2019-06-07T23:03:54.065Z,65.86
2019-06-07T23:06:23.699Z,65.54
2019-06-07T23:08:53.139Z,64.45
2019-06-07T23:11:22.671Z,64.00
2019-06-07T23:13:52.335Z,64.21
2019-06-07T23:16:21.840Z,62.39
2019-06-07T23:18:51.322Z,62.39
2019-06-07T23:21:20.780Z,64.10
2019-06-07T23:23:50.275Z,63.32
2019-06-07T23:26:20.602Z,63.69
2019-06-07T23:28:50.140Z,60.98
2019-06-07T23:31:20.829Z,61.48
2019-06-07T23:33:50.434Z,60.79
2019-06-07T23:36:21.189Z,60.79
2019-06-07T23:38:50.784Z,60.70
2019-06-07T23:41:20.494Z,58.88
2019-06-07T23:43:51.362Z,59.10
2019-06-07T23:46:21.634Z,58.56
2019-06-07T23:48:51.209Z,58.43
2019-06-07T23:51:21.851Z,56.08
2019-06-07T23:53:51.764Z,55.97
2019-06-07T23:56:22.281Z,56.69
2019-06-07T23:58:51.841Z,55.48
